Fidato — PB5970 — position and weather

sailwx.info

Track history (hours):
 
Tides and Currents Weather Stations Pressure Air Temp Water Temp Dewpoint Dewpoint Depression Visibility Wind Speed Wind Dir Waves Ship Positions

Fidato

Last reported at 2014-Sep-20 01:32 UTC. Time now 2014-Sep-20 02:00 UTC.
Position N 50°00' E 009°03'.

Length 135 m; draft 2.5 m.

Type: Ship. MMSI: 244670975.

Date/timePositionNaut miles runAvg speedWind from/ knotsBaromVisibWave heightAir tempDewpointWater temp
2014-Sep-20 01:32N 50°00' E 009°03'0 0.0
2014-Sep-20 00:32N 50°00' E 009°03'0 0.0
2014-Sep-19 23:32N 50°00' E 009°03'0 0.0
2014-Sep-19 22:31N 50°00' E 009°03'0 0.0
2014-Sep-19 21:32N 50°00' E 009°03'0 0.4
2014-Sep-19 20:33N 50°00' E 009°03'4 3.9
2014-Sep-19 19:33N 50°04' E 008°59'3 2.6
2014-Sep-19 18:33N 50°06' E 008°57'3 3.3
2014-Sep-19 17:33N 50°08' E 008°52'4 3.9
2014-Sep-19 16:33N 50°08' E 008°46'2 2.4
2014-Sep-19 15:33N 50°06' E 008°43'  
2014-Sep-17 03:18N 51°46' E 006°20'2 2.2
2014-Sep-17 02:28N 51°48' E 006°19'0 0.0
2014-Sep-17 01:33N 51°48' E 006°19'0 0.0
2014-Sep-17 00:29N 51°48' E 006°19'0 0.0
2014-Sep-16 23:30N 51°48' E 006°19'0 0.0
2014-Sep-16 22:31N 51°48' E 006°19'0 0.0
2014-Sep-16 21:29N 51°48' E 006°19'0 0.0
2014-Sep-16 20:33N 51°48' E 006°19'0 0.0
2014-Sep-16 19:33N 51°48' E 006°19'18 4.2
2014-Sep-16 15:23N 51°51' E 005°51'5 5.5
2014-Sep-16 14:27N 51°53' E 005°43'5 5.7
2014-Sep-16 13:34N 51°54' E 005°35'1 1.5
2014-Sep-16 12:33N 51°54' E 005°33'0 0.0
2014-Sep-16 11:34N 51°54' E 005°33'0 0.0
2014-Sep-16 10:34N 51°54' E 005°33'0 0.0
2014-Sep-16 09:33N 51°54' E 005°33'3 3.5
2014-Sep-16 08:34N 51°53' E 005°27'5 5.0
2014-Sep-16 07:33N 51°49' E 005°23'4 4.3
2014-Sep-16 06:33N 51°49' E 005°16'5 5.4
2014-Sep-16 05:34N 51°49' E 005°07'6 6.0
2014-Sep-16 04:33N 51°49' E 004°57'2 2.3
2014-Sep-16 03:33N 51°49' E 004°54'0 0.0
2014-Sep-16 02:34N 51°49' E 004°54'0 0.0
2014-Sep-16 01:33N 51°49' E 004°54'0 0.0
2014-Sep-16 00:34N 51°49' E 004°54'0 0.0
2014-Sep-15 23:34N 51°49' E 004°54'0 0.0
2014-Sep-15 22:33N 51°49' E 004°54'0 0.0
2014-Sep-15 21:34N 51°49' E 004°54'0 0.0
2014-Sep-15 20:34N 51°49' E 004°54'0 0.0
2014-Sep-15 19:33N 51°49' E 004°54'4 4.1
2014-Sep-15 18:34N 51°49' E 004°47'6 6.2
2014-Sep-15 17:34N 51°52' E 004°38'6 6.3
2014-Sep-15 16:33N 51°54' E 004°29'4 4.4
2014-Sep-15 15:34N 51°54' E 004°22'3 3.4
2014-Sep-15 14:34N 51°53' E 004°17'0 0.2
2014-Sep-15 13:34N 51°53' E 004°17'0 0.0
2014-Sep-15 12:33N 51°53' E 004°17'0 0.0
2014-Sep-15 11:34N 51°53' E 004°17'0 0.0
2014-Sep-15 10:33N 51°53' E 004°17'0 0.2
2014-Sep-15 09:33N 51°53' E 004°17'0 0.0
2014-Sep-15 08:34N 51°53' E 004°17'0 0.1
2014-Sep-15 07:34N 51°53' E 004°17'4 3.7
2014-Sep-15 06:34N 51°54' E 004°22'4 4.0
2014-Sep-15 05:33N 51°54' E 004°29'0 0.0
2014-Sep-15 04:33N 51°54' E 004°29'0 0.0
2014-Sep-15 03:33N 51°54' E 004°29'0 0.0
2014-Sep-15 02:34N 51°54' E 004°29'0 0.0
2014-Sep-15 01:33N 51°54' E 004°29'0 0.0
2014-Sep-15 00:33N 51°54' E 004°29'0 0.0
2014-Sep-14 23:33N 51°54' E 004°29'0 0.0
2014-Sep-14 22:33N 51°54' E 004°29'0 0.0
2014-Sep-14 21:33N 51°54' E 004°29'0 0.0
2014-Sep-14 20:33N 51°54' E 004°29'0 0.0
2014-Sep-14 19:33N 51°54' E 004°29'0 0.0
2014-Sep-14 18:33N 51°54' E 004°29'0 0.0
2014-Sep-14 17:33N 51°54' E 004°29'0 0.0
2014-Sep-14 16:33N 51°54' E 004°29'0 0.0
2014-Sep-14 15:33N 51°54' E 004°29'0 0.0
2014-Sep-14 14:33N 51°54' E 004°29'0 0.0
2014-Sep-14 13:33N 51°54' E 004°29'0 0.0
2014-Sep-14 12:34N 51°54' E 004°29'0 0.0
2014-Sep-14 11:33N 51°54' E 004°29'0 0.0
2014-Sep-14 10:33N 51°54' E 004°29'0 0.0
2014-Sep-14 09:33N 51°54' E 004°29'0 0.0
2014-Sep-14 08:33N 51°54' E 004°29'0 0.0
2014-Sep-14 07:33N 51°54' E 004°29'0 0.0
2014-Sep-14 06:33N 51°54' E 004°29'0 0.0
2014-Sep-14 05:33N 51°54' E 004°29'0 0.0
2014-Sep-14 04:33N 51°54' E 004°29'0 0.0
2014-Sep-14 03:34N 51°54' E 004°29'0 0.0
2014-Sep-14 02:33N 51°54' E 004°29'0 0.0
2014-Sep-14 01:33N 51°54' E 004°29'0 0.0
2014-Sep-13 21:33N 51°54' E 004°29'0 0.0
2014-Sep-13 20:33N 51°54' E 004°29'0 0.0
2014-Sep-13 19:33N 51°54' E 004°29'0 0.0
2014-Sep-13 18:33N 51°54' E 004°29'0 0.0
2014-Sep-13 17:33N 51°54' E 004°29'0 0.0
2014-Sep-13 16:33N 51°54' E 004°29'0 0.0
2014-Sep-13 15:34N 51°54' E 004°29'0 0.0
2014-Sep-13 14:33N 51°54' E 004°29'0 0.0
2014-Sep-13 13:33N 51°54' E 004°29'0 0.0
2014-Sep-13 12:32N 51°54' E 004°29'0 0.0
2014-Sep-13 11:33N 51°54' E 004°29'0 0.0
2014-Sep-13 10:33N 51°54' E 004°29'0 0.0
2014-Sep-13 09:33N 51°54' E 004°29'0 0.2
2014-Sep-13 08:30N 51°54' E 004°29'6 6.0
2014-Sep-13 07:33N 51°53' E 004°38'2 2.3
2014-Sep-13 06:33N 51°51' E 004°40'0 0.0
2014-Sep-13 05:33N 51°51' E 004°40'0 0.0
2014-Sep-13 04:33N 51°51' E 004°40'0 0.0
2014-Sep-13 03:33N 51°51' E 004°40'0 0.0
2014-Sep-13 02:33N 51°51' E 004°40'0 0.0
2014-Sep-13 01:33N 51°51' E 004°40'0 0.0
2014-Sep-13 00:33N 51°51' E 004°40'0 0.0
2014-Sep-12 23:34N 51°51' E 004°40'0 0.0
2014-Sep-12 22:33N 51°51' E 004°40'0 0.0
2014-Sep-12 21:34N 51°51' E 004°40'0 0.0
2014-Sep-12 20:32N 51°51' E 004°40'0 0.0
2014-Sep-12 19:33N 51°51' E 004°40'0 0.0
2014-Sep-12 18:33N 51°51' E 004°40'0 0.0
2014-Sep-12 17:33N 51°51' E 004°40'0 0.0
2014-Sep-12 16:33N 51°51' E 004°40'0 0.0
2014-Sep-12 15:33N 51°51' E 004°40'0 0.0
2014-Sep-12 14:33N 51°51' E 004°40'0 0.0
2014-Sep-12 13:33N 51°51' E 004°40'0 0.0
2014-Sep-12 12:33N 51°51' E 004°40'0 0.0
2014-Sep-12 11:33N 51°51' E 004°40'0 0.0
2014-Sep-12 10:34N 51°51' E 004°40'0 0.0
2014-Sep-12 09:33N 51°51' E 004°40'0 0.0
2014-Sep-12 08:33N 51°51' E 004°40'0 0.0
2014-Sep-12 07:33N 51°51' E 004°40'0 0.0
2014-Sep-12 06:33N 51°51' E 004°40'0 0.0
2014-Sep-12 05:33N 51°51' E 004°40'0 0.0
2014-Sep-12 04:33N 51°51' E 004°40'0 0.0
2014-Sep-12 03:33N 51°51' E 004°40'0 0.0
2014-Sep-12 02:33N 51°51' E 004°40'0 0.0
2014-Sep-12 01:33N 51°51' E 004°40'0 0.0
2014-Sep-12 00:33N 51°51' E 004°40'0 0.3
2014-Sep-11 23:33N 51°51' E 004°40'8 7.8
2014-Sep-11 22:33N 51°49' E 004°53'8 8.4
2014-Sep-11 21:33N 51°49' E 005°06'8 8.1
2014-Sep-11 20:33N 51°49' E 005°19'7 7.1
2014-Sep-11 19:33N 51°53' E 005°29'9 8.6
2014-Sep-11 18:31N 51°53' E 005°43'  
Track history (hours):
 
Tides and Currents Weather Stations Pressure Air Temp Water Temp Dewpoint Dewpoint Depression Visibility Wind Speed Wind Dir Waves Ship Positions

Fidato

Last reported at 2014-Sep-20 01:32 UTC. Time now 2014-Sep-20 02:00 UTC.
Position N 50°00' E 009°03'.

Length 135 m; draft 2.5 m.

Type: Ship. MMSI: 244670975.

Date/timePositionNaut miles runAvg speedWind from/ knotsBaromVisibWave heightAir tempDewpointWater temp
2014-Sep-20 01:32N 50°00' E 009°03'0 0.0
2014-Sep-20 00:32N 50°00' E 009°03'0 0.0
2014-Sep-19 23:32N 50°00' E 009°03'0 0.0
2014-Sep-19 22:31N 50°00' E 009°03'0 0.0
2014-Sep-19 21:32N 50°00' E 009°03'0 0.4
2014-Sep-19 20:33N 50°00' E 009°03'4 3.9
2014-Sep-19 19:33N 50°04' E 008°59'3 2.6
2014-Sep-19 18:33N 50°06' E 008°57'3 3.3
2014-Sep-19 17:33N 50°08' E 008°52'4 3.9
2014-Sep-19 16:33N 50°08' E 008°46'2 2.4
2014-Sep-19 15:33N 50°06' E 008°43'  
2014-Sep-17 03:18N 51°46' E 006°20'2 2.2
2014-Sep-17 02:28N 51°48' E 006°19'0 0.0
2014-Sep-17 01:33N 51°48' E 006°19'0 0.0
2014-Sep-17 00:29N 51°48' E 006°19'0 0.0
2014-Sep-16 23:30N 51°48' E 006°19'0 0.0
2014-Sep-16 22:31N 51°48' E 006°19'0 0.0
2014-Sep-16 21:29N 51°48' E 006°19'0 0.0
2014-Sep-16 20:33N 51°48' E 006°19'0 0.0
2014-Sep-16 19:33N 51°48' E 006°19'18 4.2
2014-Sep-16 15:23N 51°51' E 005°51'5 5.5
2014-Sep-16 14:27N 51°53' E 005°43'5 5.7
2014-Sep-16 13:34N 51°54' E 005°35'1 1.5
2014-Sep-16 12:33N 51°54' E 005°33'0 0.0
2014-Sep-16 11:34N 51°54' E 005°33'0 0.0
2014-Sep-16 10:34N 51°54' E 005°33'0 0.0
2014-Sep-16 09:33N 51°54' E 005°33'3 3.5
2014-Sep-16 08:34N 51°53' E 005°27'5 5.0
2014-Sep-16 07:33N 51°49' E 005°23'4 4.3
2014-Sep-16 06:33N 51°49' E 005°16'5 5.4
2014-Sep-16 05:34N 51°49' E 005°07'6 6.0
2014-Sep-16 04:33N 51°49' E 004°57'2 2.3
2014-Sep-16 03:33N 51°49' E 004°54'0 0.0
2014-Sep-16 02:34N 51°49' E 004°54'0 0.0
2014-Sep-16 01:33N 51°49' E 004°54'0 0.0
2014-Sep-16 00:34N 51°49' E 004°54'0 0.0
2014-Sep-15 23:34N 51°49' E 004°54'0 0.0
2014-Sep-15 22:33N 51°49' E 004°54'0 0.0
2014-Sep-15 21:34N 51°49' E 004°54'0 0.0
2014-Sep-15 20:34N 51°49' E 004°54'0 0.0
2014-Sep-15 19:33N 51°49' E 004°54'4 4.1
2014-Sep-15 18:34N 51°49' E 004°47'6 6.2
2014-Sep-15 17:34N 51°52' E 004°38'6 6.3
2014-Sep-15 16:33N 51°54' E 004°29'4 4.4
2014-Sep-15 15:34N 51°54' E 004°22'3 3.4
2014-Sep-15 14:34N 51°53' E 004°17'0 0.2
2014-Sep-15 13:34N 51°53' E 004°17'0 0.0
2014-Sep-15 12:33N 51°53' E 004°17'0 0.0
2014-Sep-15 11:34N 51°53' E 004°17'0 0.0
2014-Sep-15 10:33N 51°53' E 004°17'0 0.2
2014-Sep-15 09:33N 51°53' E 004°17'0 0.0
2014-Sep-15 08:34N 51°53' E 004°17'0 0.1
2014-Sep-15 07:34N 51°53' E 004°17'4 3.7
2014-Sep-15 06:34N 51°54' E 004°22'4 4.0
2014-Sep-15 05:33N 51°54' E 004°29'0 0.0
2014-Sep-15 04:33N 51°54' E 004°29'0 0.0
2014-Sep-15 03:33N 51°54' E 004°29'0 0.0
2014-Sep-15 02:34N 51°54' E 004°29'0 0.0
2014-Sep-15 01:33N 51°54' E 004°29'0 0.0
2014-Sep-15 00:33N 51°54' E 004°29'0 0.0
2014-Sep-14 23:33N 51°54' E 004°29'0 0.0
2014-Sep-14 22:33N 51°54' E 004°29'0 0.0
2014-Sep-14 21:33N 51°54' E 004°29'0 0.0
2014-Sep-14 20:33N 51°54' E 004°29'0 0.0
2014-Sep-14 19:33N 51°54' E 004°29'0 0.0
2014-Sep-14 18:33N 51°54' E 004°29'0 0.0
2014-Sep-14 17:33N 51°54' E 004°29'0 0.0
2014-Sep-14 16:33N 51°54' E 004°29'0 0.0
2014-Sep-14 15:33N 51°54' E 004°29'0 0.0
2014-Sep-14 14:33N 51°54' E 004°29'0 0.0
2014-Sep-14 13:33N 51°54' E 004°29'0 0.0
2014-Sep-14 12:34N 51°54' E 004°29'0 0.0
2014-Sep-14 11:33N 51°54' E 004°29'0 0.0
2014-Sep-14 10:33N 51°54' E 004°29'0 0.0
2014-Sep-14 09:33N 51°54' E 004°29'0 0.0
2014-Sep-14 08:33N 51°54' E 004°29'0 0.0
2014-Sep-14 07:33N 51°54' E 004°29'0 0.0
2014-Sep-14 06:33N 51°54' E 004°29'0 0.0
2014-Sep-14 05:33N 51°54' E 004°29'0 0.0
2014-Sep-14 04:33N 51°54' E 004°29'0 0.0
2014-Sep-14 03:34N 51°54' E 004°29'0 0.0
2014-Sep-14 02:33N 51°54' E 004°29'0 0.0
2014-Sep-14 01:33N 51°54' E 004°29'0 0.0
2014-Sep-13 21:33N 51°54' E 004°29'0 0.0
2014-Sep-13 20:33N 51°54' E 004°29'0 0.0
2014-Sep-13 19:33N 51°54' E 004°29'0 0.0
2014-Sep-13 18:33N 51°54' E 004°29'0 0.0
2014-Sep-13 17:33N 51°54' E 004°29'0 0.0
2014-Sep-13 16:33N 51°54' E 004°29'0 0.0
2014-Sep-13 15:34N 51°54' E 004°29'0 0.0
2014-Sep-13 14:33N 51°54' E 004°29'0 0.0
2014-Sep-13 13:33N 51°54' E 004°29'0 0.0
2014-Sep-13 12:32N 51°54' E 004°29'0 0.0
2014-Sep-13 11:33N 51°54' E 004°29'0 0.0
2014-Sep-13 10:33N 51°54' E 004°29'0 0.0
2014-Sep-13 09:33N 51°54' E 004°29'0 0.2
2014-Sep-13 08:30N 51°54' E 004°29'6 6.0
2014-Sep-13 07:33N 51°53' E 004°38'2 2.3
2014-Sep-13 06:33N 51°51' E 004°40'0 0.0
2014-Sep-13 05:33N 51°51' E 004°40'0 0.0
2014-Sep-13 04:33N 51°51' E 004°40'0 0.0
2014-Sep-13 03:33N 51°51' E 004°40'0 0.0
2014-Sep-13 02:33N 51°51' E 004°40'0 0.0
2014-Sep-13 01:33N 51°51' E 004°40'0 0.0
2014-Sep-13 00:33N 51°51' E 004°40'0 0.0
2014-Sep-12 23:34N 51°51' E 004°40'0 0.0
2014-Sep-12 22:33N 51°51' E 004°40'0 0.0
2014-Sep-12 21:34N 51°51' E 004°40'0 0.0
2014-Sep-12 20:32N 51°51' E 004°40'0 0.0
2014-Sep-12 19:33N 51°51' E 004°40'0 0.0
2014-Sep-12 18:33N 51°51' E 004°40'0 0.0
2014-Sep-12 17:33N 51°51' E 004°40'0 0.0
2014-Sep-12 16:33N 51°51' E 004°40'0 0.0
2014-Sep-12 15:33N 51°51' E 004°40'0 0.0
2014-Sep-12 14:33N 51°51' E 004°40'0 0.0
2014-Sep-12 13:33N 51°51' E 004°40'0 0.0
2014-Sep-12 12:33N 51°51' E 004°40'0 0.0
2014-Sep-12 11:33N 51°51' E 004°40'0 0.0
2014-Sep-12 10:34N 51°51' E 004°40'0 0.0
2014-Sep-12 09:33N 51°51' E 004°40'0 0.0
2014-Sep-12 08:33N 51°51' E 004°40'0 0.0
2014-Sep-12 07:33N 51°51' E 004°40'0 0.0
2014-Sep-12 06:33N 51°51' E 004°40'0 0.0
2014-Sep-12 05:33N 51°51' E 004°40'0 0.0
2014-Sep-12 04:33N 51°51' E 004°40'0 0.0
2014-Sep-12 03:33N 51°51' E 004°40'0 0.0
2014-Sep-12 02:33N 51°51' E 004°40'0 0.0
2014-Sep-12 01:33N 51°51' E 004°40'0 0.0
2014-Sep-12 00:33N 51°51' E 004°40'0 0.3
2014-Sep-11 23:33N 51°51' E 004°40'8 7.8
2014-Sep-11 22:33N 51°49' E 004°53'8 8.4
2014-Sep-11 21:33N 51°49' E 005°06'8 8.1
2014-Sep-11 20:33N 51°49' E 005°19'7 7.1
2014-Sep-11 19:33N 51°53' E 005°29'9 8.6
2014-Sep-11 18:31N 51°53' E 005°43'  

Dump ship's entire track history